Data for 12/04/2012

Time Sea-Level Adjusted Pressure Absolute Pressure Temperature Relative Humidity Dew Point Precipitation   
(mb) (inHg) (mb) (inHg) (C) (F) (%) (C) (F) (mm) (in)
00:01 1023 30.21 852 25.16 -3.5 25.6 69 -8.4 16.9 0 0
00:02 1023 30.21 852 25.16 -3.7 25.4 70 -8.4 16.8 0 0
00:03 1023 30.21 852 25.16 -3.8 25.1 71 -8.4 16.9 0 0
00:04 1023 30.21 852 25.16 -3.9 25 71 -8.3 17 0 0
00:05 1023 30.21 852 25.16 -3.8 25.1 71 -8.3 17 0 0
00:06 1023 30.21 852 25.16 -3.8 25.2 71 -8.3 17.1 0 0
00:07 1023 30.21 852 25.16 -4 24.8 72 -8.3 17 0 0
00:08 1023 30.21 852 25.16 -4.2 24.5 73 -8.3 17 0 0
00:09 1023 30.21 852 25.16 -4.2 24.4 73 -8.3 17.1 0 0
00:10 1023 30.21 852 25.16 -4.2 24.4 74 -8.2 17.2 0 0
00:11 1023 30.21 852 25.16 -4.2 24.4 74 -8.2 17.2 0 0
00:12 1023 30.21 852 25.16 -4.1 24.6 73 -8.2 17.2 0 0
00:13 1023 30.21 852 25.16 -4 24.9 72 -8.2 17.2 0 0
00:14 1023 30.21 852 25.16 -3.9 24.9 73 -8.2 17.3 0 0
00:15 1023 30.21 852 25.16 -4 24.8 73 -8.2 17.3 0 0
00:16 1023 30.21 852 25.16 -4.1 24.5 73 -8.3 17.1 0 0
00:17 1023 30.21 852 25.16 -4.3 24.3 74 -8.3 17 0 0
00:18 1023 30.21 852 25.16 -4.4 24.1 74 -8.3 17 0 0
00:19 1023 30.21 852 25.16 -4.4 24.1 74 -8.4 16.9 0 0
00:20 1023 30.21 852 25.16 -4.5 23.9 74 -8.5 16.8 0 0
00:21 1023 30.21 852 25.16 -4.6 23.7 75 -8.5 16.7 0 0
00:22 1023 30.21 852 25.16 -4.7 23.5 75 -8.4 16.8 0 0
00:23 1023 30.21 852 25.16 -4.7 23.6 75 -8.4 16.8 0 0
00:24 1023 30.21 852 25.16 -4.7 23.6 75 -8.5 16.7 0 0
00:25 1023 30.21 852 25.16 -4.6 23.7 75 -8.4 16.8 0 0
00:26 1023 30.21 852 25.16 -4.5 24 74 -8.5 16.7 0 0
00:27 1023 30.21 852 25.16 -4.4 24.1 73 -8.5 16.7 0 0
00:28 1023 30.21 852 25.16 -4.2 24.4 73 -8.4 16.9 0 0
00:29 1023 30.21 852 25.16 -4 24.9 71 -8.5 16.7 0 0
00:30 1023 30.21 852 25.16 -4 24.9 71 -8.5 16.7 0 0
00:31 1023 30.21 852 25.16 -3.9 25.1 71 -8.4 16.9 0 0
00:32 1023 30.21 852 25.16 -3.7 25.4 70 -8.3 17 0 0
00:33 1023 30.21 852 25.16 -3.5 25.7 69 -8.4 17 0 0
00:34 1023 30.21 852 25.16 -3.5 25.7 70 -8.3 17.1 0 0
00:35 1023 30.21 852 25.16 -3.2 26.2 68 -8.2 17.2 0 0
00:36 1023 30.21 852 25.16 -2.8 26.9 66 -8.3 17.1 0 0
00:37 1023 30.21 852 25.16 -2.7 27.1 66 -8.2 17.2 0 0
00:38 1023 30.21 852 25.16 -2.8 26.9 66 -8.4 16.8 0 0
00:39 1023 30.21 852 25.16 -3.1 26.3 68 -8.2 17.2 0 0
00:40 1023 30.21 852 25.16 -3.5 25.8 70 -8.2 17.2 0 0
00:41 1023 30.21 852 25.16 -3.6 25.5 70 -8.2 17.2 0 0
00:42 1023 30.21 852 25.16 -3.7 25.4 71 -8.2 17.2 0 0
00:43 1023 30.21 852 25.16 -3.7 25.4 71 -8.2 17.2 0 0
00:44 1023 30.21 852 25.16 -3.6 25.5 71 -8.2 17.3 0 0
00:45 1023 30.21 852 25.16 -3.5 25.8 70 -8.2 17.3 0 0
00:46 1023 30.21 852 25.16 -3.4 26 70 -8.1 17.4 0 0
00:47 1023 30.21 852 25.16 -3.2 26.2 69 -8.2 17.3 0 0
00:48 1023 30.21 852 25.16 -3.3 26.1 68 -8.3 17.1 0 0
00:49 1023 30.21 852 25.16 -3.3 26.1 69 -8.2 17.2 0 0
00:50 1023 30.21 852 25.16 -3.3 26 68 -8.4 16.9 0 0
00:51 1023 30.21 852 25.16 -3.5 25.7 68 -8.6 16.5 0 0
00:52 1023 30.21 852 25.16 -3.7 25.3 69 -8.6 16.6 0 0
00:53 1023 30.21 852 25.16 -3.9 25 71 -8.5 16.8 0 0
00:54 1023 30.21 852 25.16 -4 24.7 71 -8.5 16.7 0 0
00:55 1023 30.21 852 25.16 -4.1 24.7 72 -8.4 16.8 0 0
00:56 1023 30.21 852 25.16 -4.1 24.6 72 -8.5 16.7 0 0
00:57 1023 30.21 852 25.16 -4.2 24.5 72 -8.5 16.6 0 0
00:58 1023 30.21 852 25.16 -4.2 24.4 72 -8.5 16.7 0 0
00:59 1023 30.21 852 25.16 -4.2 24.5 73 -8.3 17.1 0 0
01:00 1023 30.21 852 25.16 -3.9 24.9 72 -8.3 17.1 0 0
01:01 1023 30.21 852 25.16 -3.6 25.4 70 -8.3 17 0 0
01:02 1023 30.21 852 25.16 -3.4 25.9 68 -8.4 16.9 0 0
01:03 1023 30.21 852 25.16 -3.3 26.1 68 -8.4 17 0 0
01:04 1023 30.21 852 25.16 -3.2 26.2 68 -8.4 17 0 0
01:05 1023 30.21 852 25.16 -3.2 26.3 67 -8.4 16.8 0 0
01:06 1023 30.21 852 25.16 -3.3 26.1 68 -8.3 17 0 0
01:07 1023 30.21 852 25.16 -3.2 26.2 68 -8.3 17 0 0
01:08 1023 30.21 852 25.16 -3.1 26.5 67 -8.3 17 0 0
01:09 1023 30.21 852 25.16 -3 26.7 67 -8.3 17 0 0
01:10 1023 30.21 852 25.16 -2.9 26.7 67 -8.3 17 0 0
01:11 1023 30.21 852 25.16 -2.9 26.8 67 -8.3 17.1 0 0
01:12 1023 30.21 852 25.16 -2.8 26.9 65 -8.4 16.9 0 0
01:13 1023 30.21 852 25.16 -2.9 26.8 65 -8.5 16.7 0 0
01:14 1023 30.21 852 25.16 -3 26.7 66 -8.5 16.7 0 0
01:15 1023 30.21 852 25.16 -2.9 26.7 65 -8.7 16.4 0 0
01:16 1023 30.21 852 25.16 -3.2 26.3 66 -8.7 16.3 0 0
01:17 1023 30.21 852 25.16 -3.5 25.7 67 -8.7 16.3 0 0
01:18 1023 30.21 852 25.16 -3.7 25.3 69 -8.6 16.5 0 0
01:19 1023 30.21 852 25.16 -3.8 25.1 69 -8.8 16.2 0 0
01:20 1023 30.21 852 25.16 -3.9 25 69 -8.9 16 0 0
01:21 1023 30.21 852 25.16 -4.1 24.7 69 -8.9 16 0 0
01:22 1023 30.21 852 25.16 -4.3 24.3 71 -8.9 16.1 0 0
01:23 1023 30.21 852 25.16 -4.3 24.2 70 -9 15.8 0 0
01:24 1023 30.21 852 25.16 -4.4 24 71 -9 15.8 0 0
01:25 1023 30.21 852 25.16 -4.6 23.8 72 -9 15.8 0 0
01:26 1023 30.21 852 25.16 -4.7 23.5 73 -8.9 16 0 0
01:27 1023 30.21 852 25.16 -4.9 23.1 73 -9 15.8 0 0
01:28 1023 30.21 852 25.16 -5.1 22.8 74 -9 15.8 0 0
01:29 1023 30.21 852 25.16 -5.2 22.6 75 -9 15.8 0 0
01:30 1023 30.21 852 25.16 -5.3 22.5 76 -9 15.9 0 0
01:31 1023 30.21 852 25.16 -5.3 22.5 75 -9 15.9 0 0
01:32 1023 30.21 852 25.16 -5.3 22.4 75 -9.1 15.7 0 0
01:33 1023 30.21 852 25.16 -5.3 22.4 76 -8.9 16 0 0
01:34 1023 30.21 852 25.16 -5.2 22.6 74 -9.1 15.5 0 0
01:35 1023 30.21 852 25.16 -5.2 22.6 76 -8.9 16 0 0
01:36 1023 30.21 852 25.16 -5.2 22.7 76 -8.8 16.1 0 0
01:37 1023 30.21 852 25.16 -5.1 22.9 75 -8.8 16.1 0 0
01:38 1023 30.21 852 25.16 -4.8 23.4 74 -8.7 16.3 0 0
01:39 1023 30.21 852 25.16 -4.5 23.9 72 -8.9 16 0 0
01:40 1023 30.21 852 25.16 -4.6 23.8 73 -8.7 16.3 0 0
01:41 1023 30.21 852 25.16 -4.4 24.2 71 -8.8 16.2 0 0
01:42 1022 30.18 852 25.16 -4.1 24.6 69 -8.9 15.9 0 0
01:43 1022 30.18 852 25.16 -4 24.8 68 -9.1 15.7 0 0
01:44 1022 30.18 852 25.16 -4.3 24.3 69 -9.2 15.4 0 0
01:45 1022 30.18 852 25.16 -4.6 23.8 70 -9.2 15.4 0 0
01:46 1022 30.18 852 25.16 -4.8 23.3 72 -9.2 15.5 0 0
01:47 1022 30.18 851 25.13 -5 23.1 71 -9.4 15.1 0 0
01:48 1022 30.18 851 25.13 -5.1 22.8 72 -9.4 15.1 0 0
01:49 1022 30.18 851 25.13 -5.3 22.5 73 -9.4 15 0 0
01:50 1022 30.18 851 25.13 -5.4 22.3 73 -9.5 14.9 0 0
01:51 1022 30.18 851 25.13 -5.5 22 74 -9.5 14.9 0 0
01:52 1022 30.18 851 25.13 -5.7 21.7 74 -9.6 14.7 0 0
01:53 1022 30.18 851 25.13 -6 21.3 75 -9.7 14.6 0 0
01:54 1022 30.18 851 25.13 -6.2 20.9 77 -9.6 14.7 0 0
01:55 1022 30.18 851 25.13 -6.3 20.7 77 -9.7 14.6 0 0
01:56 1022 30.18 851 25.13 -6.4 20.5 77 -9.7 14.5 0 0
01:57 1022 30.18 851 25.13 -6.6 20.1 78 -9.9 14.2 0 0
01:58 1022 30.18 851 25.13 -6.8 19.8 78 -9.9 14.1 0 0
01:59 1022 30.18 851 25.13 -6.9 19.6 80 -9.8 14.4 0 0
02:00 1022 30.18 851 25.13 -7 19.5 80 -9.9 14.2 0 0
02:01 1022 30.18 851 25.13 -6.9 19.5 81 -9.8 14.4 0 0
02:02 1022 30.18 851 25.13 -6.9 19.5 81 -9.7 14.6 0 0
02:03 1022 30.18 851 25.13 -6.9 19.6 80 -9.7 14.5 0 0
02:04 1022 30.18 851 25.13 -6.9 19.6 80 -9.7 14.6 0 0
02:05 1022 30.18 851 25.13 -6.8 19.7 81 -9.5 14.8 0 0
02:06 1022 30.18 851 25.13 -6.8 19.8 80 -9.7 14.6 0 0
02:07 1022 30.18 851 25.13 -6.9 19.7 80 -9.7 14.5 0 0
02:08 1022 30.18 851 25.13 -6.9 19.6 81 -9.6 14.7 0 0
02:09 1022 30.18 851 25.13 -6.8 19.7 81 -9.5 14.9 0 0
02:10 1022 30.18 851 25.13 -6.7 20 81 -9.4 15.1 0 0
02:11 1022 30.18 851 25.13 -6.4 20.5 80 -9.3 15.2 0 0
02:12 1022 30.18 851 25.13 -6.2 20.9 79 -9.2 15.4 0 0
02:13 1022 30.18 851 25.13 -5.9 21.4 78 -9.2 15.5 0 0
02:14 1022 30.18 852 25.16 -5.7 21.8 76 -9.3 15.3 0 0
02:15 1022 30.18 852 25.16 -5.6 21.9 75 -9.3 15.3 0 0
02:16 1022 30.18 852 25.16 -5.5 22.1 74 -9.4 15.2 0 0
02:17 1022 30.18 852 25.16 -5.4 22.3 74 -9.3 15.2 0 0
02:18 1022 30.18 852 25.16 -5.3 22.4 74 -9.2 15.4 0 0
02:19 1022 30.18 852 25.16 -5.3 22.4 74 -9.2 15.4 0 0
02:20 1022 30.18 852 25.16 -5.4 22.4 74 -9.2 15.4 0 0
02:21 1022 30.18 852 25.16 -5.4 22.2 75 -9.2 15.4 0 0
02:22 1022 30.18 852 25.16 -5.5 22.2 75 -9.2 15.4 0 0
02:23 1022 30.18 852 25.16 -5.4 22.3 75 -9.2 15.4 0 0
02:24 1022 30.18 852 25.16 -5.3 22.4 74 -9.2 15.5 0 0
02:25 1022 30.18 851 25.13 -5.3 22.5 75 -9.1 15.5 0 0
02:26 1022 30.18 851 25.13 -5.2 22.6 75 -9.1 15.6 0 0
02:27 1022 30.18 851 25.13 -5.2 22.6 74 -9.1 15.6 0 0
02:28 1022 30.18 851 25.13 -5.1 22.8 74 -9.1 15.7 0 0
02:29 1022 30.18 851 25.13 -5 22.9 74 -9.1 15.7 0 0
02:30 1022 30.18 851 25.13 -5 23.1 73 -9.1 15.6 0 0
02:31 1022 30.18 851 25.13 -4.9 23.1 73 -9.1 15.6 0 0
02:32 1022 30.18 851 25.13 -5.1 22.8 74 -9 15.8 0 0
02:33 1022 30.18 851 25.13 -5 23.1 74 -9 15.9 0 0
02:34 1022 30.18 851 25.13 -4.7 23.5 72 -8.9 15.9 0 0
02:35 1022 30.18 851 25.13 -4.6 23.8 72 -8.9 16 0 0
02:36 1022 30.18 851 25.13 -4.7 23.6 72 -8.9 16 0 0
02:37 1022 30.18 851 25.13 -4.9 23.2 74 -8.9 15.9 0 0
02:38 1022 30.18 851 25.13 -5.1 22.7 75 -8.9 15.9 0 0
02:39 1022 30.18 851 25.13 -5.1 22.8 75 -8.9 16 0 0
02:40 1022 30.18 851 25.13 -5 23 75 -8.8 16.1 0 0
02:41 1022 30.18 851 25.13 -5 23 75 -8.8 16.2 0 0
02:42 1022 30.18 851 25.13 -4.9 23.1 75 -8.7 16.3 0 0
02:43 1022 30.18 851 25.13 -4.8 23.4 75 -8.7 16.4 0 0
02:44 1022 30.18 851 25.13 -4.6 23.7 74 -8.7 16.4 0 0
02:45 1022 30.18 851 25.13 -4.4 24.1 72 -8.6 16.4 0 0
02:46 1022 30.18 851 25.13 -4.1 24.6 71 -8.6 16.5 0 0
02:47 1022 30.18 851 25.13 -3.9 24.9 70 -8.6 16.6 0 0
02:48 1022 30.18 851 25.13 -3.8 25.2 70 -8.6 16.6 0 0
02:49 1022 30.18 851 25.13 -3.7 25.3 69 -8.5 16.6 0 0
02:50 1022 30.18 851 25.13 -3.7 25.4 69 -8.5 16.7 0 0
02:51 1022 30.18 851 25.13 -3.6 25.5 69 -8.5 16.6 0 0
02:52 1022 30.18 851 25.13 -3.5 25.7 68 -8.5 16.7 0 0
02:53 1022 30.18 851 25.13 -3.4 25.8 68 -8.5 16.7 0 0
02:54 1022 30.18 851 25.13 -3.4 25.8 68 -8.5 16.8 0 0
02:55 1022 30.18 851 25.13 -3.5 25.8 69 -8.4 16.9 0 0
02:56 1022 30.18 851 25.13 -3.6 25.4 70 -8.4 16.9 0 0
02:57 1022 30.18 851 25.13 -3.8 25.1 71 -8.4 16.9 0 0
02:58 1022 30.18 851 25.13 -3.8 25.2 71 -8.3 17 0 0
02:59 1022 30.18 851 25.13 -3.8 25.1 71 -8.3 17 0 0
03:00 1022 30.18 851 25.13 -3.8 25.1 71 -8.3 17.1 0 0
03:01 1022 30.18 851 25.13 -3.8 25.2 71 -8.2 17.2 0 0
03:02 1022 30.18 851 25.13 -3.8 25.2 71 -8.2 17.2 0 0
03:03 1022 30.18 851 25.13 -3.8 25.1 72 -8.2 17.2 0 0
03:04 1022 30.18 851 25.13 -3.8 25.1 72 -8.2 17.3 0 0
03:05 1022 30.18 851 25.13 -3.8 25.2 72 -8.2 17.3 0 0
03:06 1022 30.18 851 25.13 -3.7 25.3 71 -8.2 17.2 0 0
03:07 1022 30.18 851 25.13 -3.6 25.5 71 -8.2 17.3 0 0
03:08 1022 30.18 851 25.13 -3.7 25.4 71 -8.1 17.4 0 0
03:09 1022 30.18 851 25.13 -3.8 25.2 72 -8.1 17.4 0 0
03:10 1022 30.18 851 25.13 -3.7 25.3 71 -8.2 17.3 0 0
03:11 1022 30.18 851 25.13 -3.7 25.4 71 -8.1 17.3 0 0
03:12 1022 30.18 851 25.13 -3.7 25.3 71 -8.2 17.3 0 0
03:13 1022 30.18 851 25.13 -3.8 25.2 72 -8.2 17.3 0 0
03:14 1022 30.18 851 25.13 -3.8 25.2 72 -8.1 17.3 0 0
03:15 1022 30.18 851 25.13 -3.7 25.3 72 -8.1 17.4 0 0
03:16 1022 30.18 851 25.13 -3.7 25.4 72 -8.1 17.4 0 0
03:17 1022 30.18 851 25.13 -3.6 25.5 71 -8.1 17.3 0 0
03:18 1022 30.18 851 25.13 -3.5 25.7 71 -8.1 17.5 0 0
03:19 1022 30.18 851 25.13 -3.5 25.7 71 -8 17.6 0 0
03:20 1022 30.18 851 25.13 -3.6 25.5 72 -8 17.5 0 0
03:21 1022 30.18 851 25.13 -3.7 25.3 72 -8 17.5 0 0
03:22 1022 30.18 851 25.13 -3.8 25.1 72 -8.1 17.4 0 0
03:23 1022 30.18 851 25.13 -3.8 25.2 71 -8.2 17.2 0 0
03:24 1022 30.18 851 25.13 -3.7 25.4 72 -8.1 17.5 0 0
03:25 1022 30.18 851 25.13 -3.7 25.4 73 -7.9 17.8 0 0
03:26 1021 30.15 851 25.13 -3.7 25.3 73 -7.8 18 0 0
03:27 1021 30.15 851 25.13 -3.8 25.2 74 -7.8 18 0 0
03:28 1022 30.18 851 25.13 -3.8 25.2 74 -7.7 18.1 0 0
03:29 1022 30.18 851 25.13 -3.7 25.3 73 -7.8 17.9 0 0
03:30 1021 30.15 851 25.13 -3.6 25.6 72 -7.9 17.8 0 0
03:31 1022 30.18 851 25.13 -3.4 25.9 71 -7.9 17.8 0 0
03:32 1021 30.15 851 25.13 -3.2 26.3 71 -7.7 18.1 0 0
03:33 1021 30.15 851 25.13 -3.2 26.3 70 -7.8 17.9 0 0
03:34 1021 30.15 851 25.13 -3 26.5 70 -7.8 18 0 0
03:35 1021 30.15 851 25.13 -3 26.6 71 -7.6 18.4 0 0
03:36 1021 30.15 851 25.13 -3.1 26.4 71 -7.6 18.2 0 0
03:37 1021 30.15 851 25.13 -3.1 26.4 70 -7.8 18 0 0
03:38 1021 30.15 851 25.13 -3 26.7 70 -7.7 18.2 0 0
03:39 1021 30.15 851 25.13 -2.9 26.8 70 -7.6 18.2 0 0
03:40 1021 30.15 851 25.13 -2.9 26.8 70 -7.6 18.4 0 0
03:41 1021 30.15 851 25.13 -2.9 26.8 70 -7.7 18.2 0 0
03:42 1021 30.15 851 25.13 -2.9 26.8 69 -7.7 18.1 0 0
03:43 1021 30.15 851 25.13 -2.8 27 69 -7.7 18.1 0 0
03:44 1021 30.15 851 25.13 -2.7 27.1 69 -7.6 18.3 0 0
03:45 1021 30.15 851 25.13 -2.7 27.1 69 -7.7 18.2 0 0
03:46 1021 30.15 851 25.13 -2.7 27.1 69 -7.7 18.2 0 0
03:47 1021 30.15 851 25.13 -2.7 27.1 69 -7.7 18.2 0 0
03:48 1021 30.15 851 25.13 -2.7 27.1 69 -7.6 18.3 0 0
03:49 1021 30.15 851 25.13 -2.8 27 69 -7.6 18.3 0 0
03:50 1021 30.15 851 25.13 -2.8 26.9 70 -7.6 18.3 0 0
03:51 1021 30.15 851 25.13 -2.9 26.8 71 -7.5 18.5 0 0
03:52 1021 30.15 850 25.1 -3 26.6 71 -7.5 18.5 0 0
03:53 1021 30.15 850 25.1 -3.2 26.3 72 -7.5 18.6 0 0
03:54 1021 30.15 850 25.1 -3.3 26 73 -7.5 18.6 0 0
03:55 1021 30.15 850 25.1 -3.4 25.8 74 -7.4 18.6 0 0
03:56 1021 30.15 850 25.1 -3.6 25.6 74 -7.5 18.5 0 0
03:57 1021 30.15 850 25.1 -3.7 25.4 75 -7.5 18.4 0 0
03:58 1021 30.15 850 25.1 -3.7 25.3 75 -7.6 18.4 0 0
03:59 1021 30.15 850 25.1 -3.7 25.3 75 -7.5 18.5 0 0
04:00 1021 30.15 850 25.1 -3.8 25.1 75 -7.6 18.4 0 0
04:01 1021 30.15 850 25.1 -3.8 25.1 76 -7.5 18.5 0 0
04:02 1021 30.15 850 25.1 -3.8 25.2 75 -7.6 18.4 0 0
04:03 1021 30.15 850 25.1 -3.7 25.4 74 -7.6 18.3 0 0
04:04 1021 30.15 850 25.1 -3.5 25.7 73 -7.6 18.3 0 0
04:05 1021 30.15 850 25.1 -3.4 26 73 -7.6 18.3 0 0
04:06 1021 30.15 850 25.1 -3.3 26 73 -7.6 18.4 0 0
04:07 1021 30.15 850 25.1 -3.3 26.1 72 -7.6 18.4 0 0
04:08 1021 30.15 850 25.1 -3.2 26.3 72 -7.5 18.5 0 0
04:09 1021 30.15 850 25.1 -3.1 26.5 71 -7.6 18.4 0 0
04:10 1021 30.15 850 25.1 -2.9 26.8 70 -7.6 18.3 0 0
04:11 1021 30.15 850 25.1 -2.8 27 70 -7.5 18.4 0 0
04:12 1021 30.15 850 25.1 -2.6 27.4 68 -7.6 18.3 0 0
04:13 1021 30.15 850 25.1 -2.4 27.7 68 -7.5 18.5 0 0
04:14 1021 30.15 850 25.1 -2.2 28 67 -7.5 18.5 0 0
04:15 1021 30.15 850 25.1 -2.1 28.1 68 -7.3 18.8 0 0
04:16 1021 30.15 850 25.1 -2.1 28.2 68 -7.3 18.8 0 0
04:17 1021 30.15 850 25.1 -2.1 28.2 67 -7.4 18.7 0 0
04:18 1021 30.15 850 25.1 -2.1 28.3 67 -7.4 18.7 0 0
04:19 1021 30.15 850 25.1 -2.1 28.3 67 -7.3 18.8 0 0
04:20 1021 30.15 850 25.1 -2.1 28.3 67 -7.3 18.8 0 0
04:21 1021 30.15 850 25.1 -2 28.3 68 -7.2 19 0 0
04:22 1021 30.15 850 25.1 -2.1 28.2 68 -7.2 19.1 0 0
04:23 1021 30.15 850 25.1 -2.1 28.1 69 -7.2 19.1 0 0
04:24 1021 30.15 850 25.1 -2.2 28.1 68 -7.3 18.9 0 0
04:25 1021 30.15 850 25.1 -2.2 28.1 68 -7.3 18.9 0 0
04:26 1021 30.15 850 25.1 -2.2 28.1 68 -7.3 18.8 0 0
04:27 1021 30.15 850 25.1 -2.1 28.2 68 -7.2 19 0 0
04:28 1021 30.15 850 25.1 -2.1 28.2 68 -7.2 19.1 0 0
04:29 1021 30.15 850 25.1 -2.1 28.2 68 -7.2 19 0 0
04:30 1021 30.15 850 25.1 -2 28.3 69 -7.1 19.3 0 0
04:31 1021 30.15 850 25.1 -2 28.5 68 -7 19.4 0 0
04:32 1021 30.15 850 25.1 -2 28.5 69 -7 19.4 0 0
04:33 1021 30.15 850 25.1 -2 28.5 68 -7.1 19.2 0 0
04:34 1021 30.15 850 25.1 -2 28.5 68 -7.1 19.2 0 0
04:35 1021 30.15 850 25.1 -1.9 28.6 67 -7.3 18.9 0 0
04:36 1020 30.12 850 25.1 -1.8 28.8 67 -7 19.3 0 0
04:37 1020 30.12 850 25.1 -1.7 28.9 67 -7 19.3 0 0
04:38 1020 30.12 850 25.1 -1.6 29 67 -7 19.4 0 0
04:39 1020 30.12 850 25.1 -1.6 29.1 67 -6.9 19.6 0 0
04:40 1020 30.12 850 25.1 -1.6 29.2 66 -7 19.3 0 0
04:41 1020 30.12 850 25.1 -1.5 29.3 66 -7 19.4 0 0
04:42 1020 30.12 850 25.1 -1.5 29.4 66 -7.1 19.3 0 0
04:43 1020 30.12 850 25.1 -1.5 29.4 66 -6.9 19.5 0 0
04:44 1020 30.12 850 25.1 -1.5 29.3 67 -6.9 19.6 0 0
04:45 1020 30.12 850 25.1 -1.5 29.2 67 -6.9 19.5 0 0
04:46 1020 30.12 850 25.1 -1.6 29.1 67 -6.9 19.6 0 0
04:47 1020 30.12 850 25.1 -1.7 29 67 -6.9 19.6 0 0
04:48 1020 30.12 850 25.1 -1.7 29 67 -7 19.5 0 0
04:49 1020 30.12 850 25.1 -1.7 29 69 -6.6 20.2 0 0
04:50 1020 30.12 850 25.1 -1.8 28.8 70 -6.6 20.2 0 0
04:51 1021 30.15 850 25.1 -1.9 28.6 70 -6.6 20.1 0 0
04:52 1021 30.15 850 25.1 -1.9 28.6 71 -6.5 20.3 0 0
04:53 1021 30.15 850 25.1 -1.9 28.5 71 -6.6 20.2 0 0
04:54 1021 30.15 850 25.1 -1.9 28.5 70 -6.6 20.1 0 0
04:55 1021 30.15 850 25.1 -2 28.5 70 -6.7 20 0 0
04:56 1021 30.15 850 25.1 -1.9 28.5 70 -6.6 20 0 0
04:57 1021 30.15 850 25.1 -1.9 28.6 71 -6.5 20.3 0 0
04:58 1021 30.15 850 25.1 -2 28.5 72 -6.4 20.4 0 0
04:59 1021 30.15 850 25.1 -2.1 28.2 72 -6.4 20.4 0 0
05:00 1021 30.15 850 25.1 -2.1 28.1 72 -6.5 20.2 0 0
05:01 1021 30.15 850 25.1 -2.1 28.2 71 -6.8 19.8 0 0
05:02 1021 30.15 850 25.1 -2 28.3 71 -6.6 20.1 0 0
05:03 1021 30.15 850 25.1 -1.9 28.5 70 -6.8 19.8 0 0
05:04 1021 30.15 850 25.1 -1.8 28.7 69 -6.8 19.7 0 0
05:05 1021 30.15 850 25.1 -1.6 29.2 67 -7 19.5 0 0
05:06 1021 30.15 850 25.1 -1.2 29.8 65 -6.9 19.5 0 0
05:07 1021 30.15 850 25.1 -0.9 30.3 64 -6.8 19.7 0 0
05:08 1021 30.15 850 25.1 -0.7 30.7 64 -6.8 19.8 0 0
05:09 1021 30.15 850 25.1 -0.7 30.7 66 -6.4 20.5 0 0
05:10 1020 30.12 850 25.1 -0.7 30.7 65 -6.4 20.4 0 0
05:11 1020 30.12 850 25.1 -0.8 30.5 65 -6.5 20.3 0 0
05:12 1020 30.12 850 25.1 -0.9 30.4 64 -6.8 19.7 0 0
05:13 1020 30.12 850 25.1 -0.9 30.4 65 -6.5 20.2 0 0
05:14 1020 30.12 850 25.1 -0.9 30.5 66 -6.5 20.4 0 0
05:15 1020 30.12 850 25.1 -0.8 30.5 66 -6.4 20.5 0 0
05:16 1020 30.12 850 25.1 -0.9 30.4 66 -6.5 20.3 0 0
05:17 1020 30.12 850 25.1 -0.9 30.5 66 -6.4 20.5 0 0
05:18 1020 30.12 850 25.1 -0.9 30.4 65 -6.6 20.2 0 0
05:19 1020 30.12 850 25.1 -0.9 30.4 65 -6.7 20 0 0
05:20 1020 30.12 849 25.07 -0.9 30.4 66 -6.5 20.2 0 0
05:21 1020 30.12 850 25.1 -0.9 30.3 65 -6.6 20 0 0
05:22 1020 30.12 850 25.1 -0.9 30.3 66 -6.6 20.1 0 0
05:23 1020 30.12 849 25.07 -1 30.3 66 -6.5 20.3 0 0
05:24 1020 30.12 849 25.07 -0.9 30.3 67 -6.3 20.7 0 0
05:25 1020 30.12 849 25.07 -1 30.3 68 -6.1 21 0 0
05:26 1020 30.12 849 25.07 -1 30.1 68 -6.2 20.8 0 0
05:27 1020 30.12 849 25.07 -1 30.1 68 -6.2 20.8 0 0
05:28 1020 30.12 849 25.07 -1 30.2 68 -6.1 21 0 0
05:29 1020 30.12 849 25.07 -0.9 30.3 66 -6.5 20.3 0 0
05:30 1020 30.12 849 25.07 -0.8 30.6 65 -6.5 20.3 0 0
05:31 1020 30.12 849 25.07 -0.7 30.8 65 -6.4 20.5 0 0
05:32 1020 30.12 849 25.07 -0.6 30.9 67 -6 21.1 0 0
05:33 1020 30.12 849 25.07 -0.6 30.9 67 -6.1 21.1 0 0
05:34 1020 30.12 849 25.07 -0.7 30.8 67 -6 21.2 0 0
05:35 1020 30.12 849 25.07 -0.7 30.7 67 -6.2 20.9 0 0
05:36 1020 30.12 849 25.07 -0.7 30.8 67 -6.1 21.1 0 0
05:37 1020 30.12 849 25.07 -0.7 30.7 67 -6.1 21 0 0
05:38 1020 30.12 849 25.07 -0.8 30.6 68 -6 21.2 0 0
05:39 1020 30.12 849 25.07 -0.8 30.5 67 -6.1 21 0 0
05:40 1020 30.12 849 25.07 -0.8 30.5 66 -6.4 20.4 0 0
05:41 1020 30.12 849 25.07 -0.8 30.6 67 -6.3 20.7 0 0
05:42 1020 30.12 849 25.07 -0.8 30.6 66 -6.4 20.5 0 0
05:43 1020 30.12 849 25.07 -0.8 30.6 64 -6.7 19.9 0 0
05:44 1020 30.12 849 25.07 -0.7 30.7 63 -6.9 19.6 0 0
05:45 1020 30.12 849 25.07 -0.6 30.9 63 -6.9 19.6 0 0
05:46 1020 30.12 849 25.07 -0.5 31.1 62 -6.8 19.7 0 0
05:47 1020 30.12 849 25.07 -0.5 31.2 63 -6.7 19.9 0 0
05:48 1020 30.12 849 25.07 -0.4 31.3 63 -6.7 20 0 0
05:49 1020 30.12 849 25.07 -0.4 31.3 63 -6.6 20.1 0 0
05:50 1020 30.12 849 25.07 -0.3 31.4 63 -6.6 20.2 0 0
05:51 1020 30.12 849 25.07 -0.4 31.3 63 -6.6 20.1 0 0
05:52 1020 30.12 849 25.07 -0.4 31.3 63 -6.6 20.2 0 0
05:53 1020 30.12 849 25.07 -0.4 31.3 64 -6.4 20.5 0 0
05:54 1020 30.12 849 25.07 -0.4 31.3 63 -6.7 20 0 0
05:55 1020 30.12 849 25.07 -0.4 31.3 62 -6.8 19.8 0 0
05:56 1020 30.12 849 25.07 -0.4 31.4 60 -7.2 19.1 0 0
05:57 1020 30.12 849 25.07 -0.3 31.4 62 -6.8 19.7 0 0
05:58 1020 30.12 849 25.07 -0.3 31.4 61 -6.9 19.6 0 0
05:59 1020 30.12 849 25.07 -0.3 31.4 61 -6.9 19.5 0 0
06:00 1020 30.12 849 25.07 -0.3 31.5 61 -7 19.4 0 0
06:01 1020 30.12 849 25.07 -0.3 31.5 61 -7 19.4 0 0
06:02 1020 30.12 849 25.07 -0.3 31.5 61 -7 19.5 0 0
06:03 1020 30.12 849 25.07 -0.3 31.5 61 -6.9 19.7 0 0
06:04 1020 30.12 849 25.07 -0.3 31.5 62 -6.7 20 0 0
06:05 1020 30.12 849 25.07 -0.3 31.4 62 -6.8 19.8 0 0
06:06 1020 30.12 849 25.07 -0.3 31.4 62 -6.8 19.8 0 0
06:07 1020 30.12 849 25.07 -0.3 31.4 62 -6.8 19.8 0 0
06:08 1020 30.12 849 25.07 -0.4 31.4 64 -6.4 20.6 0 0
06:09 1020 30.12 849 25.07 -0.4 31.3 65 -6.1 20.9 0 0
06:10 1020 30.12 849 25.07 -0.5 31.1 66 -6 21.1 0 0
06:11 1020 30.12 849 25.07 -0.6 31 67 -6 21.3 0 0
06:12 1020 30.12 849 25.07 -0.6 30.9 68 -5.9 21.4 0 0
06:13 1020 30.12 849 25.07 -0.7 30.8 67 -6.1 21.1 0 0
06:14 1020 30.12 849 25.07 -0.7 30.7 68 -5.9 21.3 0 0
06:15 1020 30.12 849 25.07 -0.8 30.6 69 -5.8 21.5 0 0
06:16 1020 30.12 849 25.07 -0.8 30.6 70 -5.6 22 0 0
06:17 1020 30.12 849 25.07 -0.8 30.5 71 -5.4 22.3 0 0
06:18 1020 30.12 849 25.07 -0.9 30.4 74 -4.9 23.1 0 0
06:19 1020 30.12 849 25.07 -1 30.2 74 -5 22.9 0 0
06:20 1020 30.12 849 25.07 -1.1 30.1 74 -5.1 22.9 0 0
06:21 1020 30.12 849 25.07 -1.1 30 74 -5.1 22.8 0 0
06:22 1020 30.12 849 25.07 -1.1 30 74 -5.1 22.8 0 0
06:23 1020 30.12 849 25.07 -1.2 29.9 74 -5.2 22.6 0 0
06:24 1020 30.12 849 25.07 -1.1 30 73 -5.3 22.5 0 0
06:25 1020 30.12 849 25.07 -1.2 29.9 73 -5.5 22.1 0 0
06:26 1020 30.12 849 25.07 -1.1 30 72 -5.5 22.1 0 0
06:27 1020 30.12 849 25.07 -1.1 30 70 -5.8 21.5 0 0
06:28 1020 30.12 849 25.07 -1 30.2 71 -5.6 21.9 0 0
06:29 1020 30.12 849 25.07 -1 30.2 72 -5.5 22.2 0 0
06:30 1020 30.12 849 25.07 -1 30.3 71 -5.6 21.8 0 0
06:31 1020 30.12 849 25.07 -1 30.3 69 -6 21.1 0 0
06:32 1020 30.12 849 25.07 -0.9 30.3 70 -5.7 21.7 0 0
06:33 1020 30.12 849 25.07 -0.9 30.4 71 -5.5 22.1 0 0
06:34 1020 30.12 849 25.07 -0.9 30.3 73 -5.2 22.6 0 0
06:35 1020 30.12 849 25.07 -0.9 30.3 73 -5.2 22.7 0 0
06:36 1020 30.12 849 25.07 -1 30.2 72 -5.3 22.4 0 0
06:37 1020 30.12 849 25.07 -1 30.2 74 -5.1 22.8 0 0
06:38 1020 30.12 849 25.07 -1 30.2 72 -5.4 22.3 0 0
06:39 1020 30.12 849 25.07 -1 30.2 71 -5.6 21.9 0 0
06:40 1020 30.12 849 25.07 -1 30.2 71 -5.6 21.9 0 0
06:41 1020 30.12 849 25.07 -0.9 30.3 71 -5.6 22 0 0
06:42 1020 30.12 849 25.07 -0.9 30.4 74 -5 23.1 0 0
06:43 1020 30.12 849 25.07 -1 30.2 73 -5.3 22.5 0 0
06:44 1020 30.12 849 25.07 -1 30.2 70 -5.8 21.6 0 0
06:45 1020 30.12 849 25.07 -0.9 30.4 70 -5.7 21.8 0 0
06:46 1020 30.12 849 25.07 -0.8 30.5 68 -6.1 21 0 0
06:47 1020 30.12 849 25.07 -0.8 30.6 67 -6.2 20.8 0 0
06:48 1020 30.12 849 25.07 -0.7 30.8 67 -6.1 21.1 0 0
06:49 1020 30.12 849 25.07 -0.6 31 68 -5.8 21.6 0 0
06:50 1020 30.12 849 25.07 -0.5 31 72 -4.9 23.1 0 0
06:51 1020 30.12 849 25.07 -0.6 30.9 72 -5 23 0 0
06:52 1020 30.12 849 25.07 -0.8 30.6 73 -5.1 22.8 0 0
06:53 1020 30.12 849 25.07 -0.8 30.6 71 -5.4 22.4 0 0
06:54 1020 30.12 849 25.07 -0.8 30.5 70 -5.7 21.7 0 0
06:55 1020 30.12 849 25.07 -0.8 30.6 70 -5.6 22 0 0
06:56 1020 30.12 849 25.07 -0.7 30.7 73 -4.9 23.1 0 0